Time;durP1;ratioP1;P1;durP2;ratioP2;P2;SDS_P1;SDS_P2;PMS_P1;PMS_P2;Temp;Humidity;BMP_temperature;BMP_pressure;BME280_temperature;BME280_humidity;BME280_pressure;Samples;Min_cycle;Max_cycle;Signal;HPM_P1;HPM_P2
2022/01/06 00:01:22;;;;;;;22.10;14.60;;;;;;;;;;5111598;28;20723;-75
2022/01/06 00:03:52;;;;;;;29.37;19.67;;;;;;;;;;5111855;28;20251;-75
2022/01/06 00:06:20;;;;;;;27.50;20.13;;;;;;;;;;5111935;28;20204;-74
2022/01/06 00:08:48;;;;;;;33.90;22.27;;;;;;;;;;5111396;28;20197;-75
2022/01/06 00:11:15;;;;;;;29.73;19.80;;;;;;;;;;5129908;27;20244;-75
2022/01/06 00:13:52;;;;;;;25.17;17.67;;;;;;;;;;5124864;27;20238;-75
2022/01/06 00:16:30;;;;;;;26.37;19.20;;;;;;;;;;5130918;27;20287;-75
2022/01/06 00:24:29;;;;;;;24.70;17.57;;;;;;;;;;5069066;28;20209;-74
2022/01/06 00:26:57;;;;;;;24.97;17.23;;;;;;;;;;5068562;28;20608;-75
2022/01/06 00:29:25;;;;;;;25.77;18.00;;;;;;;;;;5068636;28;20198;-75
2022/01/06 00:31:53;;;;;;;28.60;21.90;;;;;;;;;;5068698;28;20225;-75
2022/01/06 00:34:21;;;;;;;30.20;23.17;;;;;;;;;;5068742;28;20210;-75
2022/01/06 00:36:49;;;;;;;27.97;20.83;;;;;;;;;;5057577;28;20233;-75
2022/01/06 00:39:16;;;;;;;26.03;19.10;;;;;;;;;;5055072;28;20957;-75
2022/01/06 00:41:44;;;;;;;25.47;19.07;;;;;;;;;;5048727;28;20231;-75
2022/01/06 00:44:11;;;;;;;23.17;18.43;;;;;;;;;;5058047;28;20256;-75
2022/01/06 00:46:38;;;;;;;25.03;19.40;;;;;;;;;;5068297;28;20289;-75
2022/01/06 00:49:05;;;;;;;27.93;19.80;;;;;;;;;;5067780;28;20285;-75
2022/01/06 00:51:34;;;;;;;29.67;21.37;;;;;;;;;;5070663;28;20212;-75
2022/01/06 00:54:01;;;;;;;30.60;22.03;;;;;;;;;;5072509;28;20297;-75
2022/01/06 00:56:28;;;;;;;28.37;20.20;;;;;;;;;;5072316;28;20278;-75
2022/01/06 00:58:55;;;;;;;27.67;20.03;;;;;;;;;;5103838;27;20309;-75
2022/01/06 01:01:22;;;;;;;30.43;20.20;;;;;;;;;;5134477;27;20251;-75
2022/01/06 01:03:50;;;;;;;28.17;19.47;;;;;;;;;;5136255;27;20231;-74
2022/01/06 01:06:17;;;;;;;27.50;20.20;;;;;;;;;;5135817;27;20674;-74
2022/01/06 01:08:46;;;;;;;25.57;19.53;;;;;;;;;;5135630;27;20227;-74
2022/01/06 01:11:13;;;;;;;29.77;20.70;;;;;;;;;;5135452;27;20299;-74
2022/01/06 01:13:54;;;;;;;25.70;19.23;;;;;;;;;;5130520;27;20304;-74
2022/01/06 01:16:24;;;;;;;26.93;20.17;;;;;;;;;;5117898;27;20209;-74
2022/01/06 01:18:52;;;;;;;28.40;20.60;;;;;;;;;;5135749;27;20694;-75
2022/01/06 01:21:20;;;;;;;26.53;19.90;;;;;;;;;;5135333;27;20244;-75
2022/01/06 01:23:49;;;;;;;25.70;20.77;;;;;;;;;;5135066;27;20569;-74
2022/01/06 01:26:16;;;;;;;28.50;21.07;;;;;;;;;;5134906;27;20276;-75
2022/01/06 01:28:45;;;;;;;29.03;21.33;;;;;;;;;;5115090;28;20279;-74
2022/01/06 01:31:24;;;;;;;29.77;21.67;;;;;;;;;;5114837;28;20600;-75
2022/01/06 01:33:52;;;;;;;31.07;21.57;;;;;;;;;;5114905;28;20196;-75
2022/01/06 01:36:19;;;;;;;29.43;22.70;;;;;;;;;;5114326;28;20242;-75
2022/01/06 01:38:46;;;;;;;31.97;23.77;;;;;;;;;;5128093;27;20231;-74
2022/01/06 01:41:15;;;;;;;33.67;24.60;;;;;;;;;;5133931;27;20279;-75
2022/01/06 01:43:43;;;;;;;32.00;24.30;;;;;;;;;;5135159;27;20292;-74
2022/01/06 01:46:13;;;;;;;30.67;24.13;;;;;;;;;;5135342;27;20290;-75
2022/01/06 01:48:46;;;;;;;33.40;24.43;;;;;;;;;;5133965;27;20196;-75
2022/01/06 01:51:13;;;;;;;32.20;23.77;;;;;;;;;;5135470;27;20626;-74
2022/01/06 01:53:41;;;;;;;36.13;24.97;;;;;;;;;;5133383;27;20200;-75
2022/01/06 01:56:09;;;;;;;30.73;23.73;;;;;;;;;;5125062;27;20212;-75
2022/01/06 01:58:37;;;;;;;31.93;22.97;;;;;;;;;;5114311;28;20610;-75
2022/01/06 02:01:05;;;;;;;38.70;24.20;;;;;;;;;;5114361;28;20327;-75
2022/01/06 02:03:32;;;;;;;32.67;23.97;;;;;;;;;;5119754;27;20288;-75
2022/01/06 02:05:59;;;;;;;33.97;25.70;;;;;;;;;;5134962;27;20291;-75
2022/01/06 02:08:27;;;;;;;37.73;26.50;;;;;;;;;;5134835;27;20200;-74
2022/01/06 02:10:54;;;;;;;38.13;27.63;;;;;;;;;;5134678;27;20223;-75
2022/01/06 02:13:23;;;;;;;32.43;23.40;;;;;;;;;;5134537;27;20303;-75
2022/01/06 02:15:52;;;;;;;30.83;22.43;;;;;;;;;;5135188;27;20604;-74
2022/01/06 02:18:19;;;;;;;28.80;21.00;;;;;;;;;;5134532;27;20296;-74
2022/01/06 02:20:48;;;;;;;26.63;19.47;;;;;;;;;;5133766;27;20220;-75
2022/01/06 02:23:15;;;;;;;26.03;20.23;;;;;;;;;;5118729;27;20283;-74
2022/01/06 02:25:42;;;;;;;28.97;21.07;;;;;;;;;;5113337;27;20203;-75
2022/01/06 02:28:10;;;;;;;30.43;21.10;;;;;;;;;;5113939;28;20247;-75
2022/01/06 02:30:37;;;;;;;31.37;21.93;;;;;;;;;;5126434;27;20286;-75
2022/01/06 02:33:06;;;;;;;33.37;22.73;;;;;;;;;;5134011;27;20228;-74
2022/01/06 02:35:33;;;;;;;33.63;23.70;;;;;;;;;;5126762;27;20204;-75
2022/01/06 02:38:02;;;;;;;33.40;23.00;;;;;;;;;;5134617;27;20207;-75
2022/01/06 02:40:29;;;;;;;34.37;24.47;;;;;;;;;;5135136;27;20267;-74
2022/01/06 02:42:58;;;;;;;35.63;24.00;;;;;;;;;;5133980;27;20283;-75
2022/01/06 02:45:26;;;;;;;33.50;23.43;;;;;;;;;;5134234;27;20295;-75
2022/01/06 02:47:53;;;;;;;29.13;21.70;;;;;;;;;;5131729;27;20672;-75
2022/01/06 02:50:20;;;;;;;29.20;21.93;;;;;;;;;;5117216;27;20284;-75
2022/01/06 02:52:47;;;;;;;30.60;22.43;;;;;;;;;;5115985;27;20736;-74
2022/01/06 02:55:16;;;;;;;29.53;21.87;;;;;;;;;;5115957;27;20674;-75
2022/01/06 02:57:44;;;;;;;28.40;20.67;;;;;;;;;;5133758;27;20291;-75
2022/01/06 03:00:12;;;;;;;29.13;20.77;;;;;;;;;;5132926;27;20259;-75
2022/01/06 03:02:41;;;;;;;28.10;20.07;;;;;;;;;;5132503;27;20283;-75
2022/01/06 03:05:08;;;;;;;27.80;20.07;;;;;;;;;;5121720;27;20769;-75
2022/01/06 03:07:36;;;;;;;29.57;21.07;;;;;;;;;;5113258;28;20617;-74
2022/01/06 03:10:06;;;;;;;28.50;22.47;;;;;;;;;;5112680;28;20192;-75
2022/01/06 03:12:39;;;;;;;34.03;23.67;;;;;;;;;;5112991;28;20248;-75
2022/01/06 03:15:07;;;;;;;33.33;24.30;;;;;;;;;;5128879;27;20200;-75
2022/01/06 03:17:34;;;;;;;33.80;24.20;;;;;;;;;;5133518;27;20287;-75
2022/01/06 03:20:01;;;;;;;40.80;25.00;;;;;;;;;;5130755;27;20223;-74
2022/01/06 03:22:28;;;;;;;33.40;24.20;;;;;;;;;;5112662;28;20240;-74
2022/01/06 03:24:56;;;;;;;33.37;24.60;;;;;;;;;;5112039;28;20281;-75
2022/01/06 03:27:23;;;;;;;37.50;24.90;;;;;;;;;;5128555;27;20603;-75
2022/01/06 03:29:52;;;;;;;36.87;24.70;;;;;;;;;;5132308;27;20200;-75
2022/01/06 03:32:19;;;;;;;32.63;23.37;;;;;;;;;;5117513;27;20209;-75
2022/01/06 03:34:47;;;;;;;34.50;24.67;;;;;;;;;;5112596;28;20301;-74
2022/01/06 03:37:15;;;;;;;32.03;23.37;;;;;;;;;;5111768;28;20229;-74
2022/01/06 03:39:43;;;;;;;33.50;22.97;;;;;;;;;;5112373;28;20283;-75
2022/01/06 03:42:10;;;;;;;33.70;24.10;;;;;;;;;;5111890;28;20204;-74
2022/01/06 03:44:37;;;;;;;35.30;23.13;;;;;;;;;;5112216;28;20204;-74
2022/01/06 03:47:06;;;;;;;32.63;23.77;;;;;;;;;;5112403;28;20307;-75
2022/01/06 03:49:33;;;;;;;33.13;22.60;;;;;;;;;;5112330;27;20228;-75
2022/01/06 03:52:00;;;;;;;31.73;23.10;;;;;;;;;;5124248;27;20287;-75
2022/01/06 03:54:28;;;;;;;31.77;22.60;;;;;;;;;;5121734;27;20283;-75
2022/01/06 03:56:56;;;;;;;34.60;23.27;;;;;;;;;;5132612;27;20310;-74
2022/01/06 03:59:23;;;;;;;33.60;23.67;;;;;;;;;;5132208;27;20205;-74
2022/01/06 04:01:50;;;;;;;33.43;24.33;;;;;;;;;;5132666;27;20328;-75
2022/01/06 04:04:19;;;;;;;32.03;23.53;;;;;;;;;;5132391;27;20201;-74
2022/01/06 04:06:46;;;;;;;34.47;23.70;;;;;;;;;;5132216;27;20664;-75
2022/01/06 04:09:13;;;;;;;33.47;23.83;;;;;;;;;;5132547;27;20286;-75
2022/01/06 04:11:41;;;;;;;33.67;23.13;;;;;;;;;;5129457;27;20200;-75
2022/01/06 04:14:08;;;;;;;35.47;24.67;;;;;;;;;;5132529;27;20200;-75
2022/01/06 04:16:38;;;;;;;37.43;24.13;;;;;;;;;;5131276;27;20266;-75
2022/01/06 04:19:05;;;;;;;31.53;23.03;;;;;;;;;;5132514;27;20255;-74
2022/01/06 04:21:34;;;;;;;32.17;23.10;;;;;;;;;;5131731;27;20314;-74
2022/01/06 04:24:01;;;;;;;32.13;23.23;;;;;;;;;;5121053;27;20731;-75
2022/01/06 04:26:28;;;;;;;31.57;22.23;;;;;;;;;;5117983;27;20269;-74
2022/01/06 04:28:55;;;;;;;33.37;23.50;;;;;;;;;;5118661;27;20290;-75
2022/01/06 04:31:23;;;;;;;32.40;22.10;;;;;;;;;;5121148;27;20287;-75
2022/01/06 04:33:50;;;;;;;29.67;22.23;;;;;;;;;;5131405;27;20714;-75
2022/01/06 04:36:18;;;;;;;30.97;23.53;;;;;;;;;;5131155;27;20306;-75
2022/01/06 04:38:46;;;;;;;31.10;22.90;;;;;;;;;;5131325;27;20844;-75
2022/01/06 04:41:13;;;;;;;30.03;22.80;;;;;;;;;;5128313;27;20323;-75
2022/01/06 04:43:41;;;;;;;31.87;23.53;;;;;;;;;;5111155;28;20606;-75
2022/01/06 04:46:08;;;;;;;33.37;22.13;;;;;;;;;;5119932;28;20195;-75
2022/01/06 04:48:37;;;;;;;28.60;22.20;;;;;;;;;;5111520;28;20288;-75
2022/01/06 04:51:04;;;;;;;35.10;23.30;;;;;;;;;;5111941;28;20229;-75
2022/01/06 04:53:32;;;;;;;30.90;23.03;;;;;;;;;;5111057;28;20242;-75
2022/01/06 04:56:00;;;;;;;31.50;22.20;;;;;;;;;;5111307;28;20582;-75
2022/01/06 04:58:28;;;;;;;31.80;22.47;;;;;;;;;;5122618;27;20222;-75
2022/01/06 05:00:55;;;;;;;32.80;24.07;;;;;;;;;;5110741;28;20228;-75
2022/01/06 05:03:22;;;;;;;35.47;26.40;;;;;;;;;;5117336;28;20211;-75
2022/01/06 05:05:50;;;;;;;38.13;27.47;;;;;;;;;;5111139;28;20291;-76
2022/01/06 05:08:17;;;;;;;37.23;26.07;;;;;;;;;;5119455;28;20283;-75
2022/01/06 05:10:44;;;;;;;39.17;27.30;;;;;;;;;;5131645;27;20282;-75
2022/01/06 05:13:12;;;;;;;45.07;28.10;;;;;;;;;;5131379;27;20224;-75
2022/01/06 05:15:40;;;;;;;39.37;27.13;;;;;;;;;;5112348;27;20255;-75
2022/01/06 05:18:07;;;;;;;39.50;27.00;;;;;;;;;;5111412;28;20637;-75
2022/01/06 05:20:37;;;;;;;39.57;27.10;;;;;;;;;;5111098;28;20633;-75
2022/01/06 05:23:04;;;;;;;34.27;24.73;;;;;;;;;;5125718;28;20214;-76
2022/01/06 05:25:32;;;;;;;36.50;25.87;;;;;;;;;;5131594;27;20242;-75
2022/01/06 05:28:00;;;;;;;41.23;26.63;;;;;;;;;;5119822;27;20554;-76
2022/01/06 05:30:28;;;;;;;33.37;25.03;;;;;;;;;;5122427;28;20282;-75
2022/01/06 05:32:55;;;;;;;33.33;23.63;;;;;;;;;;5120828;27;20234;-75
2022/01/06 05:35:23;;;;;;;35.70;24.43;;;;;;;;;;5119888;27;20294;-75
2022/01/06 05:37:50;;;;;;;32.60;23.03;;;;;;;;;;5112054;28;20218;-75
2022/01/06 05:40:17;;;;;;;37.00;24.57;;;;;;;;;;5114779;28;20315;-75
2022/01/06 05:42:45;;;;;;;35.13;23.80;;;;;;;;;;5114721;28;20259;-75
2022/01/06 05:45:12;;;;;;;34.73;23.60;;;;;;;;;;5114634;28;20231;-75
2022/01/06 05:47:41;;;;;;;31.23;23.50;;;;;;;;;;5114228;28;20208;-76
2022/01/06 05:50:09;;;;;;;33.73;23.17;;;;;;;;;;5117334;27;20301;-75
2022/01/06 05:52:36;;;;;;;31.77;22.33;;;;;;;;;;5126395;27;20199;-75
2022/01/06 05:55:04;;;;;;;32.60;22.33;;;;;;;;;;5131157;27;20289;-75
2022/01/06 05:57:31;;;;;;;35.30;22.90;;;;;;;;;;5114272;27;20307;-75
2022/01/06 05:59:58;;;;;;;29.60;21.23;;;;;;;;;;5114383;28;20253;-76
2022/01/06 06:02:25;;;;;;;37.60;23.17;;;;;;;;;;5128154;27;20199;-75
2022/01/06 06:04:54;;;;;;;30.90;23.50;;;;;;;;;;5121637;27;20230;-75
2022/01/06 06:07:23;;;;;;;35.33;24.00;;;;;;;;;;5113517;28;20282;-75
2022/01/06 06:09:50;;;;;;;36.70;23.77;;;;;;;;;;5123485;27;20198;-75
2022/01/06 06:12:18;;;;;;;37.70;25.93;;;;;;;;;;5132110;27;20296;-75
2022/01/06 06:14:46;;;;;;;35.63;24.47;;;;;;;;;;5114065;27;20726;-76
2022/01/06 06:17:13;;;;;;;32.30;23.43;;;;;;;;;;5113958;27;20285;-75
2022/01/06 06:19:40;;;;;;;32.97;24.43;;;;;;;;;;5124537;27;20285;-75
2022/01/06 06:22:10;;;;;;;35.20;25.17;;;;;;;;;;5130639;27;20658;-76
2022/01/06 06:24:37;;;;;;;38.47;25.13;;;;;;;;;;5113893;27;20288;-75
2022/01/06 06:27:06;;;;;;;40.20;25.67;;;;;;;;;;5121110;27;20631;-76
2022/01/06 06:29:33;;;;;;;38.63;26.17;;;;;;;;;;5123497;27;20276;-77
2022/01/06 06:32:00;;;;;;;37.03;25.03;;;;;;;;;;5126764;27;20203;-76
2022/01/06 06:34:28;;;;;;;37.17;26.23;;;;;;;;;;5128145;27;20286;-76
2022/01/06 06:36:55;;;;;;;58.77;38.87;;;;;;;;;;5127078;27;20290;-77
2022/01/06 06:39:23;;;;;;;59.37;41.67;;;;;;;;;;5119022;27;20201;-76
2022/01/06 06:41:50;;;;;;;41.77;30.40;;;;;;;;;;5135555;27;20345;-77
2022/01/06 06:44:18;;;;;;;38.73;27.77;;;;;;;;;;5133584;27;20240;-76
2022/01/06 06:46:45;;;;;;;37.13;27.27;;;;;;;;;;5133169;27;20291;-77
2022/01/06 06:49:12;;;;;;;37.33;27.13;;;;;;;;;;5133428;27;20665;-77
2022/01/06 06:51:39;;;;;;;38.50;27.93;;;;;;;;;;5133510;27;20285;-77
2022/01/06 06:54:06;;;;;;;42.73;29.13;;;;;;;;;;5133752;27;20240;-77
2022/01/06 06:56:35;;;;;;;40.53;27.60;;;;;;;;;;5130881;27;20222;-76
2022/01/06 06:59:02;;;;;;;38.93;28.07;;;;;;;;;;5133828;27;20607;-76
2022/01/06 07:01:29;;;;;;;38.83;27.77;;;;;;;;;;5132367;27;20785;-77
2022/01/06 07:03:56;;;;;;;170.60;115.07;;;;;;;;;;5132045;27;20740;-76
2022/01/06 07:06:24;;;;;;;77.47;53.60;;;;;;;;;;5125313;27;20631;-75
2022/01/06 07:08:51;;;;;;;44.73;32.17;;;;;;;;;;5120589;27;20630;-76
2022/01/06 07:11:18;;;;;;;51.90;33.90;;;;;;;;;;5109715;28;20215;-76
2022/01/06 07:13:46;;;;;;;41.60;30.07;;;;;;;;;;5110503;28;20688;-76
2022/01/06 07:16:13;;;;;;;41.50;30.27;;;;;;;;;;5109873;28;20577;-76
2022/01/06 07:18:41;;;;;;;40.53;28.53;;;;;;;;;;5112015;28;20636;-75
2022/01/06 07:21:08;;;;;;;39.53;27.50;;;;;;;;;;5111755;28;20302;-76
2022/01/06 07:23:35;;;;;;;39.30;28.97;;;;;;;;;;5112164;28;20282;-76
2022/01/06 07:26:02;;;;;;;40.60;30.03;;;;;;;;;;5111816;28;20239;-74
2022/01/06 07:28:29;;;;;;;39.80;28.77;;;;;;;;;;5114038;27;20386;-75
2022/01/06 07:30:58;;;;;;;44.93;29.10;;;;;;;;;;5122258;27;20290;-75
2022/01/06 07:33:26;;;;;;;46.80;32.37;;;;;;;;;;5123419;27;20195;-74
2022/01/06 07:35:53;;;;;;;50.67;36.33;;;;;;;;;;5124567;27;20209;-74
2022/01/06 07:38:20;;;;;;;49.33;33.23;;;;;;;;;;5121277;27;20214;-75
2022/01/06 07:40:47;;;;;;;44.87;31.87;;;;;;;;;;5122973;27;20537;-75
2022/01/06 07:43:15;;;;;;;42.20;31.67;;;;;;;;;;5120486;27;20671;-75
2022/01/06 07:45:42;;;;;;;48.40;37.07;;;;;;;;;;5128961;27;20287;-74
2022/01/06 07:48:17;;;;;;;44.30;30.43;;;;;;;;;;5121888;27;20198;-75
2022/01/06 07:50:45;;;;;;;38.50;29.10;;;;;;;;;;5123337;27;20202;-74
2022/01/06 07:53:12;;;;;;;45.60;33.40;;;;;;;;;;5122950;27;20536;-74
2022/01/06 07:55:39;;;;;;;60.20;45.37;;;;;;;;;;5111171;28;20306;-74
2022/01/06 07:58:06;;;;;;;34.90;26.50;;;;;;;;;;5111279;28;20292;-74
2022/01/06 08:00:34;;;;;;;77.30;50.00;;;;;;;;;;5109857;28;20326;-75
2022/01/06 08:03:01;;;;;;;44.80;32.67;;;;;;;;;;5111169;28;20231;-74
2022/01/06 08:05:29;;;;;;;42.93;30.43;;;;;;;;;;5110642;28;20278;-74
2022/01/06 08:07:57;;;;;;;36.17;25.90;;;;;;;;;;5111457;28;20191;-74
2022/01/06 08:10:25;;;;;;;39.90;28.53;;;;;;;;;;5110985;28;20647;-74
2022/01/06 08:12:52;;;;;;;37.90;29.50;;;;;;;;;;5110997;28;20279;-74
2022/01/06 08:15:19;;;;;;;37.73;28.30;;;;;;;;;;5110989;28;20288;-74
2022/01/06 08:17:47;;;;;;;38.47;27.73;;;;;;;;;;5120016;27;20196;-74
2022/01/06 08:20:14;;;;;;;36.70;26.33;;;;;;;;;;5119458;27;20236;-74
2022/01/06 08:22:43;;;;;;;33.43;26.03;;;;;;;;;;5124113;27;20302;-74
2022/01/06 08:25:11;;;;;;;37.73;27.57;;;;;;;;;;5119818;28;20607;-74
2022/01/06 08:27:38;;;;;;;39.23;26.67;;;;;;;;;;5120341;28;20203;-74
2022/01/06 08:30:07;;;;;;;36.87;26.47;;;;;;;;;;5123225;27;20257;-74
2022/01/06 08:32:34;;;;;;;36.40;27.27;;;;;;;;;;5122244;27;20231;-74
2022/01/06 08:35:01;;;;;;;37.03;27.83;;;;;;;;;;5125349;27;20635;-74
2022/01/06 08:37:28;;;;;;;35.83;27.53;;;;;;;;;;5125613;28;20293;-74
2022/01/06 08:39:57;;;;;;;63.67;29.50;;;;;;;;;;5119419;27;20283;-74
2022/01/06 08:42:24;;;;;;;60.70;29.93;;;;;;;;;;5119061;27;20307;-74
2022/01/06 08:44:51;;;;;;;44.67;32.00;;;;;;;;;;5122413;28;20196;-74
2022/01/06 08:47:19;;;;;;;54.77;44.70;;;;;;;;;;5117800;28;20224;-74
2022/01/06 08:49:46;;;;;;;37.37;29.57;;;;;;;;;;5129166;27;20207;-74
2022/01/06 08:52:13;;;;;;;41.47;30.20;;;;;;;;;;5127304;27;20200;-74
2022/01/06 08:54:40;;;;;;;37.87;27.13;;;;;;;;;;5119012;27;20205;-74
2022/01/06 08:57:09;;;;;;;37.00;26.90;;;;;;;;;;5124064;27;20261;-74
2022/01/06 08:59:36;;;;;;;39.30;28.23;;;;;;;;;;5125683;27;20711;-74
2022/01/06 09:02:03;;;;;;;39.73;29.87;;;;;;;;;;5121556;27;20341;-74
2022/01/06 09:04:30;;;;;;;37.00;26.00;;;;;;;;;;5117697;28;20201;-74
2022/01/06 09:06:59;;;;;;;35.07;25.57;;;;;;;;;;5114962;28;20287;-74
2022/01/06 09:09:27;;;;;;;38.30;26.10;;;;;;;;;;5120873;28;20683;-74
2022/01/06 09:11:54;;;;;;;34.13;26.97;;;;;;;;;;5122825;27;20207;-74
2022/01/06 09:14:23;;;;;;;39.87;27.60;;;;;;;;;;5123539;27;20293;-74
2022/01/06 09:16:52;;;;;;;41.50;28.00;;;;;;;;;;5125550;27;20212;-74
2022/01/06 09:19:20;;;;;;;42.67;32.07;;;;;;;;;;5126641;27;20214;-74
2022/01/06 09:21:47;;;;;;;37.60;29.00;;;;;;;;;;5129860;27;20746;-78
2022/01/06 09:24:14;;;;;;;38.07;28.37;;;;;;;;;;5118020;27;20637;-78
2022/01/06 09:26:42;;;;;;;35.33;27.17;;;;;;;;;;5135634;27;20602;-78
2022/01/06 09:29:09;;;;;;;35.37;27.43;;;;;;;;;;5133316;27;20242;-78
2022/01/06 09:31:38;;;;;;;34.27;27.77;;;;;;;;;;5130286;27;20300;-78
2022/01/06 09:34:05;;;;;;;33.47;24.90;;;;;;;;;;5130089;27;20229;-78
2022/01/06 09:36:33;;;;;;;34.90;28.20;;;;;;;;;;5128932;27;20240;-78
2022/01/06 09:39:00;;;;;;;41.40;27.63;;;;;;;;;;5114868;28;20240;-78
2022/01/06 09:41:29;;;;;;;34.33;26.00;;;;;;;;;;5113710;28;20260;-79
2022/01/06 09:43:57;;;;;;;34.67;28.83;;;;;;;;;;5125088;27;20226;-78
2022/01/06 09:46:24;;;;;;;34.77;24.30;;;;;;;;;;5122363;27;20316;-78
2022/01/06 09:48:57;;;;;;;35.40;26.23;;;;;;;;;;5119573;27;20734;-79
2022/01/06 09:51:24;;;;;;;35.33;28.50;;;;;;;;;;5114406;28;20201;-78
2022/01/06 09:53:53;;;;;;;33.47;26.27;;;;;;;;;;5120675;27;20643;-78
2022/01/06 09:56:20;;;;;;;33.17;25.47;;;;;;;;;;5128746;27;20301;-78
2022/01/06 09:58:48;;;;;;;35.77;28.67;;;;;;;;;;5134831;27;20259;-78
2022/01/06 10:01:15;;;;;;;34.13;28.10;;;;;;;;;;5134731;27;20322;-78
2022/01/06 10:03:44;;;;;;;36.40;28.13;;;;;;;;;;5124867;27;20288;-78
2022/01/06 10:06:14;;;;;;;38.53;30.30;;;;;;;;;;5114457;27;20281;-78
2022/01/06 10:08:42;;;;;;;45.77;39.60;;;;;;;;;;5113172;28;20208;-79
2022/01/06 10:11:10;;;;;;;286.73;164.83;;;;;;;;;;5121708;27;20276;-79
2022/01/06 10:13:38;;;;;;;29.53;24.67;;;;;;;;;;5130678;27;20295;-80
2022/01/06 10:16:15;;;;;;;25.27;20.10;;;;;;;;;;5133207;27;20711;-80
2022/01/06 10:18:53;;;;;;;23.70;20.57;;;;;;;;;;5126372;27;20288;-79
2022/01/06 10:21:22;;;;;;;24.60;17.63;;;;;;;;;;5115996;27;20198;-80
2022/01/06 10:23:59;;;;;;;18.60;13.73;;;;;;;;;;5119493;27;20314;-79
2022/01/06 10:26:26;;;;;;;17.17;14.17;;;;;;;;;;5118737;28;20209;-80
2022/01/06 10:28:53;;;;;;;17.50;12.43;;;;;;;;;;5125372;27;20289;-79
2022/01/06 10:31:23;;;;;;;18.53;13.30;;;;;;;;;;5127288;27;20272;-80
2022/01/06 10:33:51;;;;;;;15.70;12.43;;;;;;;;;;5124980;27;20612;-80
2022/01/06 10:36:18;;;;;;;16.57;12.53;;;;;;;;;;5119565;27;20301;-79
2022/01/06 10:38:55;;;;;;;15.37;10.10;;;;;;;;;;5120723;27;20224;-80
2022/01/06 10:41:24;;;;;;;11.13;8.87;;;;;;;;;;5125184;27;20209;-80
2022/01/06 10:43:52;;;;;;;14.43;9.40;;;;;;;;;;5124000;27;20217;-80
2022/01/06 10:46:32;;;;;;;16.70;9.73;;;;;;;;;;5122729;27;20229;-79
2022/01/06 10:49:00;;;;;;;14.07;10.17;;;;;;;;;;5119368;27;20208;-79
2022/01/06 10:51:34;;;;;;;14.27;10.50;;;;;;;;;;5127589;27;21800;-80
2022/01/06 10:54:03;;;;;;;13.87;8.83;;;;;;;;;;5131874;27;20279;-80
2022/01/06 10:56:30;;;;;;;14.43;8.73;;;;;;;;;;5118953;27;20799;-80
2022/01/06 10:58:58;;;;;;;12.43;8.90;;;;;;;;;;5117332;27;20643;-79
2022/01/06 11:01:26;;;;;;;14.47;9.03;;;;;;;;;;5115946;27;20221;-80
2022/01/06 11:03:53;;;;;;;13.50;9.50;;;;;;;;;;5112988;28;20232;-80
2022/01/06 11:06:20;;;;;;;14.60;8.20;;;;;;;;;;5114041;27;20277;-80
2022/01/06 11:08:47;;;;;;;15.50;8.57;;;;;;;;;;5119722;27;20290;-80
2022/01/06 11:11:29;;;;;;;13.27;7.63;;;;;;;;;;5114450;27;20225;-80
2022/01/06 11:13:57;;;;;;;11.63;7.43;;;;;;;;;;5119697;27;20544;-80
2022/01/06 11:16:24;;;;;;;11.20;7.47;;;;;;;;;;5127790;27;20284;-80
2022/01/06 11:18:53;;;;;;;9.40;7.23;;;;;;;;;;5126923;27;20229;-80
2022/01/06 11:21:22;;;;;;;10.67;7.73;;;;;;;;;;5126137;27;20253;-75
2022/01/06 11:23:49;;;;;;;11.97;8.23;;;;;;;;;;5127783;27;20311;-75
2022/01/06 11:26:19;;;;;;;15.63;9.33;;;;;;;;;;5122049;27;20317;-75
2022/01/06 11:28:54;;;;;;;13.23;8.83;;;;;;;;;;5129711;27;20292;-75
2022/01/06 11:31:22;;;;;;;13.70;9.47;;;;;;;;;;5119539;27;20280;-75
2022/01/06 11:33:51;;;;;;;10.87;7.23;;;;;;;;;;5116692;27;20664;-75
2022/01/06 11:36:20;;;;;;;7.43;5.93;;;;;;;;;;5125378;27;20669;-75
2022/01/06 11:38:48;;;;;;;10.93;7.30;;;;;;;;;;5119456;27;20208;-75
2022/01/06 11:41:16;;;;;;;10.40;6.60;;;;;;;;;;5115872;27;20204;-76
2022/01/06 11:43:46;;;;;;;9.60;5.70;;;;;;;;;;5121314;27;20240;-75
2022/01/06 11:46:13;;;;;;;7.90;6.20;;;;;;;;;;5119534;27;20288;-75
2022/01/06 11:48:47;;;;;;;7.73;5.00;;;;;;;;;;5116077;27;20233;-75
2022/01/06 11:51:32;;;;;;;9.47;5.70;;;;;;;;;;5121605;27;20413;-75
2022/01/06 11:54:01;;;;;;;10.33;6.00;;;;;;;;;;5124417;27;20204;-75
2022/01/06 11:56:28;;;;;;;11.73;6.03;;;;;;;;;;5118605;27;20300;-75
2022/01/06 11:59:00;;;;;;;10.43;6.77;;;;;;;;;;5118576;27;20207;-75
2022/01/06 12:01:28;;;;;;;13.00;7.10;;;;;;;;;;5121262;27;20653;-75
2022/01/06 12:03:55;;;;;;;10.57;7.30;;;;;;;;;;5120924;27;20313;-75
2022/01/06 12:06:25;;;;;;;12.23;6.67;;;;;;;;;;5119791;27;20257;-75
2022/01/06 12:08:52;;;;;;;11.47;6.73;;;;;;;;;;5122668;27;20197;-75
2022/01/06 12:11:23;;;;;;;9.70;5.80;;;;;;;;;;5124663;27;20228;-75
2022/01/06 12:13:51;;;;;;;7.90;4.53;;;;;;;;;;5120594;27;20314;-75
2022/01/06 12:16:26;;;;;;;9.00;3.77;;;;;;;;;;5121477;27;20205;-75
2022/01/06 12:18:54;;;;;;;6.47;3.20;;;;;;;;;;5121313;27;20281;-75
2022/01/06 12:21:22;;;;;;;6.00;3.47;;;;;;;;;;5121738;27;20207;-75
2022/01/06 12:23:49;;;;;;;7.50;2.43;;;;;;;;;;5123051;27;20303;-75
2022/01/06 12:26:16;;;;;;;7.43;2.70;;;;;;;;;;5117335;27;20324;-75
2022/01/06 12:28:47;;;;;;;5.17;3.13;;;;;;;;;;5121116;27;20719;-76
2022/01/06 12:31:21;;;;;;;6.73;2.47;;;;;;;;;;5120398;28;20204;-75
2022/01/06 12:33:50;;;;;;;6.70;3.07;;;;;;;;;;5123585;28;20630;-76
2022/01/06 12:36:18;;;;;;;9.93;2.67;;;;;;;;;;5119548;27;20695;-76
2022/01/06 12:38:46;;;;;;;8.40;4.27;;;;;;;;;;5113239;28;20296;-76
2022/01/06 12:41:13;;;;;;;6.60;3.00;;;;;;;;;;5120177;27;20193;-76
2022/01/06 12:43:42;;;;;;;6.10;3.50;;;;;;;;;;5127134;28;20217;-76
2022/01/06 12:46:11;;;;;;;8.60;3.47;;;;;;;;;;5112644;27;20217;-76
2022/01/06 12:48:39;;;;;;;6.47;3.00;;;;;;;;;;5127418;27;20284;-76
2022/01/06 12:51:09;;;;;;;7.73;2.20;;;;;;;;;;5124267;27;20207;-76
2022/01/06 12:53:37;;;;;;;6.73;2.50;;;;;;;;;;5132264;27;20193;-76
2022/01/06 12:56:05;;;;;;;7.30;3.10;;;;;;;;;;5125033;27;20705;-76
2022/01/06 12:58:33;;;;;;;4.37;2.03;;;;;;;;;;5117643;27;20289;-76
2022/01/06 13:01:01;;;;;;;8.63;2.10;;;;;;;;;;5129397;27;20319;-76
2022/01/06 13:03:34;;;;;;;4.67;2.40;;;;;;;;;;5124061;27;20248;-75
2022/01/06 13:06:02;;;;;;;5.53;2.30;;;;;;;;;;5123669;27;20284;-75
2022/01/06 13:08:31;;;;;;;5.67;2.80;;;;;;;;;;5120012;27;20236;-75
2022/01/06 13:11:03;;;;;;;6.40;2.33;;;;;;;;;;5116230;27;20197;-75
2022/01/06 13:13:30;;;;;;;6.77;3.20;;;;;;;;;;5115310;27;20198;-75
2022/01/06 13:15:57;;;;;;;7.10;3.40;;;;;;;;;;5115934;27;20225;-75
2022/01/06 13:18:27;;;;;;;8.33;3.13;;;;;;;;;;5130347;27;20197;-75
2022/01/06 13:20:59;;;;;;;8.40;3.70;;;;;;;;;;5120362;27;20217;-76
2022/01/06 13:23:43;;;;;;;8.10;4.50;;;;;;;;;;5115932;27;20300;-75
2022/01/06 13:26:11;;;;;;;8.63;3.10;;;;;;;;;;5127001;27;20196;-76
2022/01/06 13:28:38;;;;;;;6.93;2.73;;;;;;;;;;5131543;27;20204;-76
2022/01/06 13:31:17;;;;;;;6.53;2.77;;;;;;;;;;5124349;27;20201;-75
2022/01/06 13:33:53;;;;;;;7.63;2.90;;;;;;;;;;5127284;27;20194;-75
2022/01/06 13:36:28;;;;;;;7.93;2.97;;;;;;;;;;5125670;27;20285;-76
2022/01/06 13:39:05;;;;;;;10.17;3.10;;;;;;;;;;5127378;27;20197;-75
2022/01/06 13:41:33;;;;;;;7.80;3.70;;;;;;;;;;5122483;27;20227;-75
2022/01/06 13:44:05;;;;;;;7.17;2.60;;;;;;;;;;5129334;27;20213;-75
2022/01/06 13:46:41;;;;;;;4.40;2.33;;;;;;;;;;5120472;27;20212;-76
2022/01/06 13:51:54;;;;;;;5.77;2.10;;;;;;;;;;5124825;27;20194;-76
2022/01/06 13:54:22;;;;;;;4.20;2.17;;;;;;;;;;5122142;27;20243;-75
2022/01/06 13:56:50;;;;;;;4.37;1.90;;;;;;;;;;5122613;27;20254;-75
2022/01/06 13:59:17;;;;;;;4.70;1.70;;;;;;;;;;5119407;27;20247;-76
2022/01/06 14:01:45;;;;;;;4.70;2.10;;;;;;;;;;5124523;27;20320;-75
2022/01/06 14:04:17;;;;;;;4.83;2.07;;;;;;;;;;5119963;27;20901;-75
2022/01/06 14:06:44;;;;;;;5.23;2.20;;;;;;;;;;5112773;28;20721;-75
2022/01/06 14:09:11;;;;;;;4.77;1.70;;;;;;;;;;5112070;28;20661;-75
2022/01/06 14:11:41;;;;;;;4.57;1.70;;;;;;;;;;5111244;27;20305;-76
2022/01/06 14:14:08;;;;;;;7.33;2.00;;;;;;;;;;5125275;27;20252;-75
2022/01/06 14:16:36;;;;;;;5.70;2.10;;;;;;;;;;5127206;27;20681;-76
2022/01/06 14:19:03;;;;;;;7.87;2.30;;;;;;;;;;5129917;27;20628;-75
2022/01/06 14:21:30;;;;;;;4.57;2.20;;;;;;;;;;5133225;27;20289;-75
2022/01/06 14:23:57;;;;;;;6.80;2.53;;;;;;;;;;5130525;27;20731;-75
2022/01/06 14:26:24;;;;;;;6.03;2.43;;;;;;;;;;5123971;27;20286;-75
2022/01/06 14:28:53;;;;;;;6.63;2.40;;;;;;;;;;5116967;27;20302;-75
2022/01/06 14:31:20;;;;;;;4.73;2.03;;;;;;;;;;5117881;27;20646;-75
2022/01/06 14:33:47;;;;;;;5.10;2.03;;;;;;;;;;5127728;27;20269;-75
2022/01/06 14:36:17;;;;;;;5.57;2.30;;;;;;;;;;5126812;27;20300;-75
2022/01/06 14:38:44;;;;;;;6.63;2.30;;;;;;;;;;5119039;27;20213;-75